sensor_id;sensor_type;location;lat;lon;timestamp;temperature;humidity
21163;DHT22;10739;52.198;20.908;2023-04-25T00:01:24;12.50;99.90
21163;DHT22;10739;52.198;20.908;2023-04-25T00:03:51;12.50;99.90
21163;DHT22;10739;52.198;20.908;2023-04-25T00:06:17;12.40;99.90
21163;DHT22;10739;52.198;20.908;2023-04-25T00:08:47;12.40;99.90
21163;DHT22;10739;52.198;20.908;2023-04-25T00:11:14;12.30;99.90
21163;DHT22;10739;52.198;20.908;2023-04-25T00:13:40;12.30;99.90
21163;DHT22;10739;52.198;20.908;2023-04-25T00:16:07;12.30;99.90
21163;DHT22;10739;52.198;20.908;2023-04-25T00:18:33;12.30;99.90
21163;DHT22;10739;52.198;20.908;2023-04-25T00:21:00;12.20;99.90
21163;DHT22;10739;52.198;20.908;2023-04-25T00:23:27;12.20;99.90
21163;DHT22;10739;52.198;20.908;2023-04-25T00:25:53;12.30;99.90
21163;DHT22;10739;52.198;20.908;2023-04-25T00:28:19;12.30;99.90
21163;DHT22;10739;52.198;20.908;2023-04-25T00:30:46;12.30;99.90
21163;DHT22;10739;52.198;20.908;2023-04-25T00:33:12;12.30;99.90
21163;DHT22;10739;52.198;20.908;2023-04-25T00:35:39;12.20;99.90
21163;DHT22;10739;52.198;20.908;2023-04-25T00:38:05;12.20;99.90
21163;DHT22;10739;52.198;20.908;2023-04-25T00:40:32;12.20;99.90
21163;DHT22;10739;52.198;20.908;2023-04-25T00:42:58;12.10;99.90
21163;DHT22;10739;52.198;20.908;2023-04-25T00:45:27;12.10;99.90
21163;DHT22;10739;52.198;20.908;2023-04-25T00:47:55;12.10;99.90
21163;DHT22;10739;52.198;20.908;2023-04-25T00:50:23;12.10;99.90
21163;DHT22;10739;52.198;20.908;2023-04-25T00:52:50;12.10;99.90
21163;DHT22;10739;52.198;20.908;2023-04-25T00:55:17;12.10;99.90
21163;DHT22;10739;52.198;20.908;2023-04-25T00:57:44;12.00;99.90
21163;DHT22;10739;52.198;20.908;2023-04-25T01:00:11;12.00;99.90
21163;DHT22;10739;52.198;20.908;2023-04-25T01:02:40;12.00;99.90
21163;DHT22;10739;52.198;20.908;2023-04-25T01:05:08;11.90;99.90
21163;DHT22;10739;52.198;20.908;2023-04-25T01:07:35;11.80;99.90
21163;DHT22;10739;52.198;20.908;2023-04-25T01:10:01;11.80;99.90
21163;DHT22;10739;52.198;20.908;2023-04-25T01:12:28;11.80;99.90
21163;DHT22;10739;52.198;20.908;2023-04-25T01:14:55;11.70;99.90
21163;DHT22;10739;52.198;20.908;2023-04-25T01:17:21;11.70;99.90
21163;DHT22;10739;52.198;20.908;2023-04-25T01:19:47;11.70;99.90
21163;DHT22;10739;52.198;20.908;2023-04-25T01:22:15;11.70;99.90
21163;DHT22;10739;52.198;20.908;2023-04-25T01:24:41;11.60;99.90
21163;DHT22;10739;52.198;20.908;2023-04-25T01:27:08;11.60;99.90
21163;DHT22;10739;52.198;20.908;2023-04-25T01:29:36;11.60;99.90
21163;DHT22;10739;52.198;20.908;2023-04-25T01:32:02;11.50;99.90
21163;DHT22;10739;52.198;20.908;2023-04-25T01:34:30;11.50;99.90
21163;DHT22;10739;52.198;20.908;2023-04-25T01:36:59;11.50;99.90
21163;DHT22;10739;52.198;20.908;2023-04-25T01:39:27;11.50;99.90
21163;DHT22;10739;52.198;20.908;2023-04-25T01:41:54;11.40;99.90
21163;DHT22;10739;52.198;20.908;2023-04-25T01:44:20;11.40;99.90
21163;DHT22;10739;52.198;20.908;2023-04-25T01:46:47;11.30;99.90
21163;DHT22;10739;52.198;20.908;2023-04-25T01:49:14;11.30;99.90
21163;DHT22;10739;52.198;20.908;2023-04-25T01:51:41;11.20;99.90
21163;DHT22;10739;52.198;20.908;2023-04-25T01:54:08;11.20;99.90
21163;DHT22;10739;52.198;20.908;2023-04-25T01:56:37;11.20;99.90
21163;DHT22;10739;52.198;20.908;2023-04-25T01:59:05;11.10;99.90
21163;DHT22;10739;52.198;20.908;2023-04-25T02:01:32;11.10;99.90
21163;DHT22;10739;52.198;20.908;2023-04-25T02:03:58;10.90;99.90
21163;DHT22;10739;52.198;20.908;2023-04-25T02:06:25;11.10;99.90
21163;DHT22;10739;52.198;20.908;2023-04-25T02:08:51;11.10;99.90
21163;DHT22;10739;52.198;20.908;2023-04-25T02:11:17;11.10;99.90
21163;DHT22;10739;52.198;20.908;2023-04-25T02:13:44;11.10;99.90
21163;DHT22;10739;52.198;20.908;2023-04-25T02:16:10;11.10;99.90
21163;DHT22;10739;52.198;20.908;2023-04-25T02:18:36;11.00;99.90
21163;DHT22;10739;52.198;20.908;2023-04-25T02:21:03;11.00;99.90
21163;DHT22;10739;52.198;20.908;2023-04-25T02:23:29;11.00;99.90
21163;DHT22;10739;52.198;20.908;2023-04-25T02:25:56;10.90;99.90
21163;DHT22;10739;52.198;20.908;2023-04-25T02:28:24;10.90;99.90
21163;DHT22;10739;52.198;20.908;2023-04-25T02:30:52;10.90;99.90
21163;DHT22;10739;52.198;20.908;2023-04-25T02:33:18;10.80;99.90
21163;DHT22;10739;52.198;20.908;2023-04-25T02:35:46;10.80;99.90
21163;DHT22;10739;52.198;20.908;2023-04-25T02:38:13;10.70;99.90
21163;DHT22;10739;52.198;20.908;2023-04-25T02:40:39;10.80;99.90
21163;DHT22;10739;52.198;20.908;2023-04-25T02:43:06;10.70;99.90
21163;DHT22;10739;52.198;20.908;2023-04-25T02:45:33;10.70;99.90
21163;DHT22;10739;52.198;20.908;2023-04-25T02:47:59;10.70;99.90
21163;DHT22;10739;52.198;20.908;2023-04-25T02:50:25;10.70;99.90
21163;DHT22;10739;52.198;20.908;2023-04-25T02:52:51;10.70;99.90
21163;DHT22;10739;52.198;20.908;2023-04-25T02:55:18;10.70;99.90
21163;DHT22;10739;52.198;20.908;2023-04-25T02:57:44;10.70;99.90
21163;DHT22;10739;52.198;20.908;2023-04-25T03:00:11;10.70;99.90
21163;DHT22;10739;52.198;20.908;2023-04-25T03:02:40;10.70;99.90
21163;DHT22;10739;52.198;20.908;2023-04-25T03:05:06;10.70;99.90
21163;DHT22;10739;52.198;20.908;2023-04-25T03:07:33;10.70;99.90
21163;DHT22;10739;52.198;20.908;2023-04-25T03:09:59;10.70;99.90
21163;DHT22;10739;52.198;20.908;2023-04-25T03:12:25;10.60;99.90
21163;DHT22;10739;52.198;20.908;2023-04-25T03:14:52;10.60;99.90
21163;DHT22;10739;52.198;20.908;2023-04-25T03:17:18;10.60;99.90
21163;DHT22;10739;52.198;20.908;2023-04-25T03:19:44;10.60;99.90
21163;DHT22;10739;52.198;20.908;2023-04-25T03:22:11;10.60;99.90
21163;DHT22;10739;52.198;20.908;2023-04-25T03:24:37;10.60;99.90
21163;DHT22;10739;52.198;20.908;2023-04-25T03:27:03;10.70;99.90
21163;DHT22;10739;52.198;20.908;2023-04-25T03:29:29;10.70;99.90
21163;DHT22;10739;52.198;20.908;2023-04-25T03:31:56;10.70;99.90
21163;DHT22;10739;52.198;20.908;2023-04-25T03:34:22;10.70;99.90
21163;DHT22;10739;52.198;20.908;2023-04-25T03:36:49;10.80;99.90
21163;DHT22;10739;52.198;20.908;2023-04-25T03:39:15;10.80;99.90
21163;DHT22;10739;52.198;20.908;2023-04-25T03:41:42;10.80;99.90
21163;DHT22;10739;52.198;20.908;2023-04-25T03:44:08;10.90;99.90
21163;DHT22;10739;52.198;20.908;2023-04-25T03:46:34;10.80;99.90
21163;DHT22;10739;52.198;20.908;2023-04-25T03:49:01;10.90;99.90
21163;DHT22;10739;52.198;20.908;2023-04-25T03:51:27;10.90;99.90
21163;DHT22;10739;52.198;20.908;2023-04-25T03:53:53;10.90;99.90
21163;DHT22;10739;52.198;20.908;2023-04-25T03:56:20;10.90;99.90
21163;DHT22;10739;52.198;20.908;2023-04-25T03:58:46;10.90;99.90
21163;DHT22;10739;52.198;20.908;2023-04-25T04:01:12;10.90;99.90
21163;DHT22;10739;52.198;20.908;2023-04-25T04:03:39;10.90;99.90
21163;DHT22;10739;52.198;20.908;2023-04-25T04:06:06;10.90;99.90
21163;DHT22;10739;52.198;20.908;2023-04-25T04:08:33;10.90;99.90
21163;DHT22;10739;52.198;20.908;2023-04-25T04:10:59;10.90;99.90
21163;DHT22;10739;52.198;20.908;2023-04-25T04:13:27;10.90;99.90
21163;DHT22;10739;52.198;20.908;2023-04-25T04:15:55;10.90;99.90
21163;DHT22;10739;52.198;20.908;2023-04-25T04:18:21;10.90;99.90
21163;DHT22;10739;52.198;20.908;2023-04-25T04:20:48;10.90;99.90
21163;DHT22;10739;52.198;20.908;2023-04-25T04:23:14;10.80;99.90
21163;DHT22;10739;52.198;20.908;2023-04-25T04:25:40;10.80;99.90
21163;DHT22;10739;52.198;20.908;2023-04-25T04:28:07;10.80;99.90
21163;DHT22;10739;52.198;20.908;2023-04-25T04:30:33;10.80;99.90
21163;DHT22;10739;52.198;20.908;2023-04-25T04:33:02;10.80;99.90
21163;DHT22;10739;52.198;20.908;2023-04-25T04:35:29;10.70;99.90
21163;DHT22;10739;52.198;20.908;2023-04-25T04:37:55;10.60;99.90
21163;DHT22;10739;52.198;20.908;2023-04-25T04:40:22;10.60;99.90
21163;DHT22;10739;52.198;20.908;2023-04-25T04:42:48;10.60;99.90
21163;DHT22;10739;52.198;20.908;2023-04-25T04:45:15;10.60;99.90
21163;DHT22;10739;52.198;20.908;2023-04-25T04:47:42;10.60;99.90
21163;DHT22;10739;52.198;20.908;2023-04-25T04:50:09;10.60;99.90
21163;DHT22;10739;52.198;20.908;2023-04-25T04:52:37;10.60;99.90
21163;DHT22;10739;52.198;20.908;2023-04-25T04:55:05;10.50;99.90
21163;DHT22;10739;52.198;20.908;2023-04-25T04:57:32;10.50;99.90
21163;DHT22;10739;52.198;20.908;2023-04-25T04:59:59;10.40;99.90
21163;DHT22;10739;52.198;20.908;2023-04-25T05:02:26;10.40;99.90
21163;DHT22;10739;52.198;20.908;2023-04-25T05:04:52;10.40;99.90
21163;DHT22;10739;52.198;20.908;2023-04-25T05:07:19;10.30;99.90
21163;DHT22;10739;52.198;20.908;2023-04-25T05:09:45;10.30;99.90
21163;DHT22;10739;52.198;20.908;2023-04-25T05:12:12;10.30;99.90
21163;DHT22;10739;52.198;20.908;2023-04-25T05:14:38;10.30;99.90
21163;DHT22;10739;52.198;20.908;2023-04-25T05:17:04;10.20;99.90
21163;DHT22;10739;52.198;20.908;2023-04-25T05:19:34;10.30;99.90
21163;DHT22;10739;52.198;20.908;2023-04-25T05:22:00;10.30;99.90
21163;DHT22;10739;52.198;20.908;2023-04-25T05:24:27;10.20;99.90
21163;DHT22;10739;52.198;20.908;2023-04-25T05:26:54;10.20;99.90
21163;DHT22;10739;52.198;20.908;2023-04-25T05:29:20;10.10;99.90
21163;DHT22;10739;52.198;20.908;2023-04-25T05:31:46;10.10;99.90
21163;DHT22;10739;52.198;20.908;2023-04-25T05:34:14;10.10;99.90
21163;DHT22;10739;52.198;20.908;2023-04-25T05:36:40;10.10;99.90
21163;DHT22;10739;52.198;20.908;2023-04-25T05:39:07;10.20;99.90
21163;DHT22;10739;52.198;20.908;2023-04-25T05:41:34;10.20;99.90
21163;DHT22;10739;52.198;20.908;2023-04-25T05:44:00;10.30;99.90
21163;DHT22;10739;52.198;20.908;2023-04-25T05:46:27;10.30;99.90
21163;DHT22;10739;52.198;20.908;2023-04-25T05:48:53;10.30;99.90
21163;DHT22;10739;52.198;20.908;2023-04-25T05:51:20;10.30;99.90
21163;DHT22;10739;52.198;20.908;2023-04-25T05:53:46;10.30;99.90
21163;DHT22;10739;52.198;20.908;2023-04-25T05:56:13;10.40;99.90
21163;DHT22;10739;52.198;20.908;2023-04-25T05:58:39;10.40;99.90
21163;DHT22;10739;52.198;20.908;2023-04-25T06:01:06;10.40;99.90
21163;DHT22;10739;52.198;20.908;2023-04-25T06:03:32;10.30;99.90
21163;DHT22;10739;52.198;20.908;2023-04-25T06:05:58;10.30;99.90
21163;DHT22;10739;52.198;20.908;2023-04-25T06:08:25;10.30;99.90
21163;DHT22;10739;52.198;20.908;2023-04-25T06:10:51;10.30;99.90
21163;DHT22;10739;52.198;20.908;2023-04-25T06:13:18;10.30;99.90
21163;DHT22;10739;52.198;20.908;2023-04-25T06:15:44;10.20;99.90
21163;DHT22;10739;52.198;20.908;2023-04-25T06:18:10;10.10;99.90
21163;DHT22;10739;52.198;20.908;2023-04-25T06:20:36;10.10;99.90
21163;DHT22;10739;52.198;20.908;2023-04-25T06:23:03;10.00;99.90
21163;DHT22;10739;52.198;20.908;2023-04-25T06:25:29;10.00;99.90
21163;DHT22;10739;52.198;20.908;2023-04-25T06:27:56;10.00;99.90
21163;DHT22;10739;52.198;20.908;2023-04-25T06:30:22;10.00;99.90
21163;DHT22;10739;52.198;20.908;2023-04-25T06:32:52;9.90;99.90
21163;DHT22;10739;52.198;20.908;2023-04-25T06:35:19;9.70;99.90
21163;DHT22;10739;52.198;20.908;2023-04-25T06:37:46;9.60;99.90
21163;DHT22;10739;52.198;20.908;2023-04-25T06:40:12;9.50;99.90
21163;DHT22;10739;52.198;20.908;2023-04-25T06:42:39;9.50;99.90
21163;DHT22;10739;52.198;20.908;2023-04-25T06:45:05;9.50;99.90
21163;DHT22;10739;52.198;20.908;2023-04-25T06:47:32;9.40;99.90
21163;DHT22;10739;52.198;20.908;2023-04-25T06:49:58;9.50;99.90
21163;DHT22;10739;52.198;20.908;2023-04-25T06:52:25;9.50;99.90
21163;DHT22;10739;52.198;20.908;2023-04-25T06:54:51;9.50;99.90
21163;DHT22;10739;52.198;20.908;2023-04-25T06:57:17;9.60;99.90
21163;DHT22;10739;52.198;20.908;2023-04-25T06:59:44;9.50;99.90
21163;DHT22;10739;52.198;20.908;2023-04-25T07:02:10;9.40;99.90
21163;DHT22;10739;52.198;20.908;2023-04-25T07:04:36;9.40;99.90
21163;DHT22;10739;52.198;20.908;2023-04-25T07:07:03;9.30;99.90
21163;DHT22;10739;52.198;20.908;2023-04-25T07:09:29;9.40;99.90
21163;DHT22;10739;52.198;20.908;2023-04-25T07:11:59;9.50;99.90
21163;DHT22;10739;52.198;20.908;2023-04-25T07:14:27;9.60;99.90
21163;DHT22;10739;52.198;20.908;2023-04-25T07:16:54;9.50;99.90
21163;DHT22;10739;52.198;20.908;2023-04-25T07:19:22;9.40;99.90
21163;DHT22;10739;52.198;20.908;2023-04-25T07:21:52;9.30;99.90
21163;DHT22;10739;52.198;20.908;2023-04-25T07:24:19;9.40;99.90
21163;DHT22;10739;52.198;20.908;2023-04-25T07:26:45;9.30;99.90
21163;DHT22;10739;52.198;20.908;2023-04-25T07:29:11;9.30;99.90
21163;DHT22;10739;52.198;20.908;2023-04-25T07:31:38;9.30;99.90
21163;DHT22;10739;52.198;20.908;2023-04-25T07:34:05;9.40;99.90
21163;DHT22;10739;52.198;20.908;2023-04-25T07:36:31;9.50;99.90
21163;DHT22;10739;52.198;20.908;2023-04-25T07:38:58;9.50;99.90
21163;DHT22;10739;52.198;20.908;2023-04-25T07:41:24;9.70;99.90
21163;DHT22;10739;52.198;20.908;2023-04-25T07:43:51;9.80;99.90
21163;DHT22;10739;52.198;20.908;2023-04-25T07:46:17;9.80;99.90
21163;DHT22;10739;52.198;20.908;2023-04-25T07:48:43;9.70;99.90
21163;DHT22;10739;52.198;20.908;2023-04-25T07:51:10;9.60;99.90
21163;DHT22;10739;52.198;20.908;2023-04-25T07:53:37;9.60;99.90
21163;DHT22;10739;52.198;20.908;2023-04-25T07:56:03;9.60;99.90
21163;DHT22;10739;52.198;20.908;2023-04-25T07:58:30;9.60;99.90
21163;DHT22;10739;52.198;20.908;2023-04-25T08:00:56;9.60;99.90
21163;DHT22;10739;52.198;20.908;2023-04-25T08:03:23;9.70;99.90
21163;DHT22;10739;52.198;20.908;2023-04-25T08:05:49;9.50;99.90
21163;DHT22;10739;52.198;20.908;2023-04-25T08:08:15;9.40;99.90
21163;DHT22;10739;52.198;20.908;2023-04-25T08:10:42;9.40;99.90
21163;DHT22;10739;52.198;20.908;2023-04-25T08:13:08;9.30;99.90
21163;DHT22;10739;52.198;20.908;2023-04-25T08:15:34;9.10;99.90
21163;DHT22;10739;52.198;20.908;2023-04-25T08:18:01;9.20;99.90
21163;DHT22;10739;52.198;20.908;2023-04-25T08:20:27;9.20;99.90
21163;DHT22;10739;52.198;20.908;2023-04-25T08:22:54;9.20;99.90
21163;DHT22;10739;52.198;20.908;2023-04-25T08:25:20;9.30;99.90
21163;DHT22;10739;52.198;20.908;2023-04-25T08:27:46;9.40;99.90
21163;DHT22;10739;52.198;20.908;2023-04-25T08:30:13;9.30;99.90
21163;DHT22;10739;52.198;20.908;2023-04-25T08:32:39;9.30;99.90
21163;DHT22;10739;52.198;20.908;2023-04-25T08:35:06;9.20;99.90
21163;DHT22;10739;52.198;20.908;2023-04-25T08:37:32;9.20;99.90
21163;DHT22;10739;52.198;20.908;2023-04-25T08:39:59;9.30;99.90
21163;DHT22;10739;52.198;20.908;2023-04-25T08:42:27;9.40;99.90
21163;DHT22;10739;52.198;20.908;2023-04-25T08:44:55;9.40;99.90
21163;DHT22;10739;52.198;20.908;2023-04-25T08:47:24;9.60;99.90
21163;DHT22;10739;52.198;20.908;2023-04-25T08:49:53;9.60;99.90
21163;DHT22;10739;52.198;20.908;2023-04-25T08:52:24;9.60;99.90
21163;DHT22;10739;52.198;20.908;2023-04-25T08:54:57;9.60;99.90
21163;DHT22;10739;52.198;20.908;2023-04-25T08:57:24;9.40;99.90
21163;DHT22;10739;52.198;20.908;2023-04-25T08:59:52;9.40;99.90
21163;DHT22;10739;52.198;20.908;2023-04-25T09:02:19;9.50;99.90
21163;DHT22;10739;52.198;20.908;2023-04-25T09:04:46;9.50;99.90
21163;DHT22;10739;52.198;20.908;2023-04-25T09:07:14;9.60;99.90
21163;DHT22;10739;52.198;20.908;2023-04-25T09:09:44;9.60;99.90
21163;DHT22;10739;52.198;20.908;2023-04-25T09:12:10;9.80;99.90
21163;DHT22;10739;52.198;20.908;2023-04-25T09:14:36;9.70;99.90
21163;DHT22;10739;52.198;20.908;2023-04-25T09:17:04;9.60;99.90
21163;DHT22;10739;52.198;20.908;2023-04-25T09:19:35;9.40;99.90
21163;DHT22;10739;52.198;20.908;2023-04-25T09:22:04;9.40;99.90
21163;DHT22;10739;52.198;20.908;2023-04-25T09:24:36;9.40;99.90
21163;DHT22;10739;52.198;20.908;2023-04-25T09:27:05;9.40;99.90
21163;DHT22;10739;52.198;20.908;2023-04-25T09:29:35;9.30;99.90
21163;DHT22;10739;52.198;20.908;2023-04-25T09:32:22;9.20;99.90
21163;DHT22;10739;52.198;20.908;2023-04-25T09:34:51;9.20;99.90
21163;DHT22;10739;52.198;20.908;2023-04-25T09:37:29;9.20;99.90
21163;DHT22;10739;52.198;20.908;2023-04-25T09:39:58;9.20;99.90
21163;DHT22;10739;52.198;20.908;2023-04-25T09:42:27;9.30;99.90
21163;DHT22;10739;52.198;20.908;2023-04-25T09:44:57;9.30;99.90
21163;DHT22;10739;52.198;20.908;2023-04-25T09:47:26;9.30;99.90
21163;DHT22;10739;52.198;20.908;2023-04-25T09:49:54;9.30;99.90
21163;DHT22;10739;52.198;20.908;2023-04-25T09:52:22;9.30;99.90
21163;DHT22;10739;52.198;20.908;2023-04-25T09:54:51;9.20;99.90
21163;DHT22;10739;52.198;20.908;2023-04-25T09:57:20;9.20;99.90
21163;DHT22;10739;52.198;20.908;2023-04-25T09:59:53;9.30;99.90
21163;DHT22;10739;52.198;20.908;2023-04-25T10:02:25;9.30;99.90
21163;DHT22;10739;52.198;20.908;2023-04-25T10:04:55;9.30;99.90
21163;DHT22;10739;52.198;20.908;2023-04-25T10:07:29;9.30;99.90
21163;DHT22;10739;52.198;20.908;2023-04-25T10:10:01;9.30;99.90
21163;DHT22;10739;52.198;20.908;2023-04-25T10:12:30;9.30;99.90
21163;DHT22;10739;52.198;20.908;2023-04-25T10:14:59;9.30;99.90
21163;DHT22;10739;52.198;20.908;2023-04-25T10:17:26;9.30;99.90
21163;DHT22;10739;52.198;20.908;2023-04-25T10:19:55;9.30;99.90
21163;DHT22;10739;52.198;20.908;2023-04-25T10:22:45;9.30;99.90
21163;DHT22;10739;52.198;20.908;2023-04-25T10:25:14;9.30;99.90
21163;DHT22;10739;52.198;20.908;2023-04-25T10:27:41;9.30;99.90
21163;DHT22;10739;52.198;20.908;2023-04-25T10:30:09;9.30;99.90
21163;DHT22;10739;52.198;20.908;2023-04-25T10:32:42;9.30;99.90
21163;DHT22;10739;52.198;20.908;2023-04-25T10:35:12;9.30;99.90
21163;DHT22;10739;52.198;20.908;2023-04-25T10:38:14;9.40;99.90
21163;DHT22;10739;52.198;20.908;2023-04-25T10:40:40;9.40;99.90
21163;DHT22;10739;52.198;20.908;2023-04-25T10:45:59;9.00;99.90
21163;DHT22;10739;52.198;20.908;2023-04-25T10:48:27;9.30;99.90
21163;DHT22;10739;52.198;20.908;2023-04-25T10:51:32;9.40;99.90
21163;DHT22;10739;52.198;20.908;2023-04-25T10:54:02;9.50;99.90
21163;DHT22;10739;52.198;20.908;2023-04-25T10:56:33;9.60;99.90
21163;DHT22;10739;52.198;20.908;2023-04-25T10:59:08;9.70;99.90
21163;DHT22;10739;52.198;20.908;2023-04-25T11:01:48;9.80;99.90
21163;DHT22;10739;52.198;20.908;2023-04-25T11:04:25;9.80;99.90
21163;DHT22;10739;52.198;20.908;2023-04-25T11:10:05;9.90;99.90
21163;DHT22;10739;52.198;20.908;2023-04-25T11:12:32;10.00;99.90
21163;DHT22;10739;52.198;20.908;2023-04-25T11:15:04;10.10;99.90
21163;DHT22;10739;52.198;20.908;2023-04-25T11:17:32;10.30;99.90
21163;DHT22;10739;52.198;20.908;2023-04-25T11:19:59;10.40;99.90
21163;DHT22;10739;52.198;20.908;2023-04-25T11:22:27;10.50;99.90
21163;DHT22;10739;52.198;20.908;2023-04-25T11:24:54;10.50;99.90
21163;DHT22;10739;52.198;20.908;2023-04-25T11:27:20;10.50;99.90
21163;DHT22;10739;52.198;20.908;2023-04-25T11:29:47;10.60;99.90
21163;DHT22;10739;52.198;20.908;2023-04-25T11:32:15;10.60;99.90
21163;DHT22;10739;52.198;20.908;2023-04-25T11:34:44;10.70;99.90
21163;DHT22;10739;52.198;20.908;2023-04-25T11:37:11;10.70;99.90
21163;DHT22;10739;52.198;20.908;2023-04-25T11:39:38;10.70;99.90
21163;DHT22;10739;52.198;20.908;2023-04-25T11:42:08;10.70;99.90
21163;DHT22;10739;52.198;20.908;2023-04-25T11:44:35;10.90;99.90
21163;DHT22;10739;52.198;20.908;2023-04-25T11:47:02;11.00;99.90
21163;DHT22;10739;52.198;20.908;2023-04-25T11:49:32;11.10;99.90
21163;DHT22;10739;52.198;20.908;2023-04-25T11:51:59;11.10;99.90
21163;DHT22;10739;52.198;20.908;2023-04-25T11:54:25;11.10;99.90
21163;DHT22;10739;52.198;20.908;2023-04-25T11:56:52;11.00;99.90
21163;DHT22;10739;52.198;20.908;2023-04-25T11:59:23;10.80;99.90
21163;DHT22;10739;52.198;20.908;2023-04-25T12:01:51;10.70;99.90
21163;DHT22;10739;52.198;20.908;2023-04-25T12:04:21;10.50;99.90
21163;DHT22;10739;52.198;20.908;2023-04-25T12:06:50;10.50;99.90
21163;DHT22;10739;52.198;20.908;2023-04-25T12:09:31;10.40;99.90
21163;DHT22;10739;52.198;20.908;2023-04-25T12:12:00;10.40;99.90
21163;DHT22;10739;52.198;20.908;2023-04-25T12:14:34;10.40;99.90
21163;DHT22;10739;52.198;20.908;2023-04-25T12:17:03;10.50;99.90
21163;DHT22;10739;52.198;20.908;2023-04-25T12:19:35;10.50;99.90
21163;DHT22;10739;52.198;20.908;2023-04-25T12:22:03;10.60;99.90
21163;DHT22;10739;52.198;20.908;2023-04-25T12:24:45;10.60;99.90
21163;DHT22;10739;52.198;20.908;2023-04-25T12:27:14;10.60;99.90
21163;DHT22;10739;52.198;20.908;2023-04-25T12:29:54;10.70;99.90
21163;DHT22;10739;52.198;20.908;2023-04-25T12:32:21;10.70;99.90
21163;DHT22;10739;52.198;20.908;2023-04-25T12:34:48;10.50;99.90
21163;DHT22;10739;52.198;20.908;2023-04-25T12:37:14;10.50;99.90
21163;DHT22;10739;52.198;20.908;2023-04-25T12:39:41;10.50;99.90
21163;DHT22;10739;52.198;20.908;2023-04-25T12:42:07;10.30;99.90
21163;DHT22;10739;52.198;20.908;2023-04-25T12:44:37;10.30;99.90
21163;DHT22;10739;52.198;20.908;2023-04-25T12:47:04;10.30;99.90
21163;DHT22;10739;52.198;20.908;2023-04-25T12:49:31;10.30;99.90
21163;DHT22;10739;52.198;20.908;2023-04-25T12:51:58;10.40;99.90
21163;DHT22;10739;52.198;20.908;2023-04-25T12:54:24;10.30;99.90
21163;DHT22;10739;52.198;20.908;2023-04-25T12:56:51;10.40;99.90
21163;DHT22;10739;52.198;20.908;2023-04-25T12:59:18;10.50;99.90
21163;DHT22;10739;52.198;20.908;2023-04-25T13:01:45;10.50;99.90
21163;DHT22;10739;52.198;20.908;2023-04-25T13:04:12;10.60;99.90
21163;DHT22;10739;52.198;20.908;2023-04-25T13:06:38;10.60;99.90
21163;DHT22;10739;52.198;20.908;2023-04-25T13:09:04;10.50;99.90
21163;DHT22;10739;52.198;20.908;2023-04-25T13:11:32;10.60;99.90
21163;DHT22;10739;52.198;20.908;2023-04-25T13:13:58;10.70;99.90
21163;DHT22;10739;52.198;20.908;2023-04-25T13:16:25;10.80;99.90
21163;DHT22;10739;52.198;20.908;2023-04-25T13:18:52;11.00;99.90
21163;DHT22;10739;52.198;20.908;2023-04-25T13:21:18;10.90;99.90
21163;DHT22;10739;52.198;20.908;2023-04-25T13:23:45;10.80;99.90
21163;DHT22;10739;52.198;20.908;2023-04-25T13:26:12;10.70;99.90
21163;DHT22;10739;52.198;20.908;2023-04-25T13:28:38;10.60;99.90
21163;DHT22;10739;52.198;20.908;2023-04-25T13:31:06;10.70;99.90
21163;DHT22;10739;52.198;20.908;2023-04-25T13:33:32;10.70;99.90
21163;DHT22;10739;52.198;20.908;2023-04-25T13:36:01;10.60;99.90
21163;DHT22;10739;52.198;20.908;2023-04-25T13:38:27;10.70;99.90
21163;DHT22;10739;52.198;20.908;2023-04-25T13:40:53;10.80;99.90
21163;DHT22;10739;52.198;20.908;2023-04-25T13:43:21;10.80;99.90
21163;DHT22;10739;52.198;20.908;2023-04-25T13:45:49;10.90;99.90
21163;DHT22;10739;52.198;20.908;2023-04-25T13:48:16;10.90;99.90
21163;DHT22;10739;52.198;20.908;2023-04-25T13:50:55;10.80;99.90
21163;DHT22;10739;52.198;20.908;2023-04-25T13:53:21;10.70;99.90
21163;DHT22;10739;52.198;20.908;2023-04-25T13:55:48;10.80;99.90
21163;DHT22;10739;52.198;20.908;2023-04-25T13:58:14;10.90;99.90
21163;DHT22;10739;52.198;20.908;2023-04-25T14:00:41;10.90;99.90
21163;DHT22;10739;52.198;20.908;2023-04-25T14:03:09;10.80;99.90
21163;DHT22;10739;52.198;20.908;2023-04-25T14:05:36;10.80;99.90
21163;DHT22;10739;52.198;20.908;2023-04-25T14:08:09;10.80;99.90
21163;DHT22;10739;52.198;20.908;2023-04-25T14:10:36;10.90;99.90
21163;DHT22;10739;52.198;20.908;2023-04-25T14:13:03;10.90;99.90
21163;DHT22;10739;52.198;20.908;2023-04-25T14:15:34;11.00;99.90
21163;DHT22;10739;52.198;20.908;2023-04-25T14:18:01;10.90;99.90
21163;DHT22;10739;52.198;20.908;2023-04-25T14:20:28;10.90;99.90
21163;DHT22;10739;52.198;20.908;2023-04-25T14:22:56;10.90;99.90
21163;DHT22;10739;52.198;20.908;2023-04-25T14:25:24;11.00;99.90
21163;DHT22;10739;52.198;20.908;2023-04-25T14:27:51;10.90;99.90
21163;DHT22;10739;52.198;20.908;2023-04-25T14:30:19;10.80;99.90
21163;DHT22;10739;52.198;20.908;2023-04-25T14:32:48;10.90;99.90
21163;DHT22;10739;52.198;20.908;2023-04-25T14:35:15;11.00;99.90
21163;DHT22;10739;52.198;20.908;2023-04-25T14:37:41;11.00;99.90
21163;DHT22;10739;52.198;20.908;2023-04-25T14:40:08;11.00;99.90
21163;DHT22;10739;52.198;20.908;2023-04-25T14:42:36;11.00;99.90
21163;DHT22;10739;52.198;20.908;2023-04-25T14:45:07;11.00;99.90
21163;DHT22;10739;52.198;20.908;2023-04-25T14:47:37;11.00;99.90
21163;DHT22;10739;52.198;20.908;2023-04-25T14:50:05;10.90;99.90
21163;DHT22;10739;52.198;20.908;2023-04-25T14:52:32;10.90;99.90
21163;DHT22;10739;52.198;20.908;2023-04-25T14:54:58;11.00;99.90
21163;DHT22;10739;52.198;20.908;2023-04-25T14:57:27;10.70;99.90
21163;DHT22;10739;52.198;20.908;2023-04-25T14:59:53;10.70;99.90
21163;DHT22;10739;52.198;20.908;2023-04-25T15:02:20;10.80;99.90
21163;DHT22;10739;52.198;20.908;2023-04-25T15:04:46;10.80;99.90
21163;DHT22;10739;52.198;20.908;2023-04-25T15:07:13;10.90;99.90
21163;DHT22;10739;52.198;20.908;2023-04-25T15:09:40;10.70;99.90
21163;DHT22;10739;52.198;20.908;2023-04-25T15:12:07;10.70;99.90
21163;DHT22;10739;52.198;20.908;2023-04-25T15:14:34;10.40;99.90
21163;DHT22;10739;52.198;20.908;2023-04-25T15:17:00;10.20;99.90
21163;DHT22;10739;52.198;20.908;2023-04-25T15:19:27;10.30;99.90
21163;DHT22;10739;52.198;20.908;2023-04-25T15:21:53;10.20;99.90
21163;DHT22;10739;52.198;20.908;2023-04-25T15:24:20;10.30;99.90
21163;DHT22;10739;52.198;20.908;2023-04-25T15:26:47;10.20;99.90
21163;DHT22;10739;52.198;20.908;2023-04-25T15:29:13;10.10;99.90